Time,TemperatureF,DewpointF,PressureIn,WindDirection,WindDirectionDegrees,WindSpeedMPH,WindSpeedGustMPH,Humidity,HourlyPrecipIn,Conditions,Clouds,dailyrainin,SoftwareType,DateUTC
2013-02-22 00:00:00,25.7,14.1,29.86,South,180,0.0,0.0,61,0.00,,,0.00,WUHU216HW,2013-02-22 05:00:00,
2013-02-22 00:05:00,25.7,14.1,29.86,South,180,0.0,0.0,61,0.00,,,0.00,WUHU216HW,2013-02-22 05:05:00,
2013-02-22 00:30:00,25.7,14.9,29.89,SW,225,0.0,0.0,63,0.00,,,0.00,WUHU216HW,2013-02-22 05:30:00,
2013-02-22 00:35:00,25.7,14.9,29.89,SW,225,0.0,0.0,63,0.00,,,0.00,WUHU216HW,2013-02-22 05:35:00,
2013-02-22 01:00:00,25.7,14.9,29.88,SSE,158,0.0,0.0,63,0.00,,,0.00,WUHU216HW,2013-02-22 06:00:00,
2013-02-22 01:05:00,25.7,14.9,29.88,SSE,158,0.0,0.0,63,0.00,,,0.00,WUHU216HW,2013-02-22 06:05:00,
2013-02-22 01:30:00,25.6,15.0,29.88,WSW,248,0.0,0.0,64,0.00,,,0.00,WUHU216HW,2013-02-22 06:30:00,
2013-02-22 01:35:00,25.6,15.0,29.88,WSW,248,0.0,0.0,64,0.00,,,0.00,WUHU216HW,2013-02-22 06:35:00,
2013-02-22 02:00:00,25.6,15.0,29.89,West,270,0.2,0.2,64,0.00,,,0.00,WUHU216HW,2013-02-22 07:00:00,
2013-02-22 02:05:00,25.6,15.0,29.89,West,270,0.2,0.2,64,0.00,,,0.00,WUHU216HW,2013-02-22 07:05:00,
2013-02-22 02:30:00,26.1,15.5,29.90,ENE,68,0.0,0.0,64,0.00,,,0.00,WUHU216HW,2013-02-22 07:30:00,
2013-02-22 02:35:00,26.1,15.5,29.90,ENE,68,0.0,0.0,64,0.00,,,0.00,WUHU216HW,2013-02-22 07:35:00,
2013-02-22 03:00:00,26.3,16.0,29.91,SW,225,0.0,0.0,65,0.00,,,0.00,WUHU216HW,2013-02-22 08:00:00,
2013-02-22 03:05:00,26.3,16.0,29.91,SW,225,0.0,0.0,65,0.00,,,0.00,WUHU216HW,2013-02-22 08:05:00,
2013-02-22 03:30:00,26.3,16.4,29.92,SE,135,0.4,0.4,66,0.00,,,0.00,WUHU216HW,2013-02-22 08:30:00,
2013-02-22 03:35:00,26.3,16.4,29.92,SE,135,0.4,0.4,66,0.00,,,0.00,WUHU216HW,2013-02-22 08:35:00,
2013-02-22 04:00:00,26.3,16.4,29.90,East,90,0.0,0.0,66,0.00,,,0.00,WUHU216HW,2013-02-22 09:00:00,
2013-02-22 04:05:00,26.3,16.4,29.90,East,90,0.0,0.0,66,0.00,,,0.00,WUHU216HW,2013-02-22 09:05:00,
2013-02-22 04:30:00,26.6,16.7,29.88,East,90,0.4,0.4,66,0.00,,,0.00,WUHU216HW,2013-02-22 09:30:00,
2013-02-22 04:35:00,26.6,16.7,29.88,East,90,0.4,0.4,66,0.00,,,0.00,WUHU216HW,2013-02-22 09:35:00,
2013-02-22 05:00:00,27.0,17.1,29.88,East,90,0.0,0.0,66,0.00,,,0.00,WUHU216HW,2013-02-22 10:00:00,
2013-02-22 05:05:00,27.0,17.1,29.88,East,90,0.0,0.0,66,0.00,,,0.00,WUHU216HW,2013-02-22 10:05:00,
2013-02-22 05:30:00,27.4,17.5,29.88,SE,135,0.0,0.0,66,0.00,,,0.00,WUHU216HW,2013-02-22 10:30:00,
2013-02-22 05:35:00,27.4,17.5,29.88,SE,135,0.0,0.0,66,0.00,,,0.00,WUHU216HW,2013-02-22 10:35:00,
2013-02-22 06:00:00,27.2,17.3,29.87,WSW,248,0.2,0.2,66,0.00,,,0.00,WUHU216HW,2013-02-22 11:00:00,
2013-02-22 06:05:00,27.2,17.3,29.87,WSW,248,0.2,0.2,66,0.00,,,0.00,WUHU216HW,2013-02-22 11:05:00,
2013-02-22 06:30:00,27.4,17.5,29.89,WSW,248,0.0,0.0,66,0.00,,,0.00,WUHU216HW,2013-02-22 11:30:00,
2013-02-22 06:35:00,27.4,17.5,29.89,WSW,248,0.0,0.0,66,0.00,,,0.00,WUHU216HW,2013-02-22 11:35:00,
2013-02-22 07:00:00,27.5,17.6,29.90,NNE,23,1.1,1.1,66,0.00,,,0.00,WUHU216HW,2013-02-22 12:00:00,
2013-02-22 07:05:00,27.5,17.6,29.90,NNE,23,1.1,1.1,66,0.00,,,0.00,WUHU216HW,2013-02-22 12:05:00,
2013-02-22 07:30:00,27.7,18.2,29.89,North,0,0.2,0.2,67,0.00,,,0.00,WUHU216HW,2013-02-22 12:30:00,
2013-02-22 07:35:00,27.7,18.2,29.89,North,0,0.2,0.2,67,0.00,,,0.00,WUHU216HW,2013-02-22 12:35:00,
2013-02-22 08:00:00,28.4,18.9,29.88,East,90,0.2,0.2,67,0.00,,,0.00,WUHU216HW,2013-02-22 13:00:00,
2013-02-22 08:05:00,28.4,18.9,29.88,East,90,0.2,0.2,67,0.00,,,0.00,WUHU216HW,2013-02-22 13:05:00,
2013-02-22 08:30:00,29.5,19.5,29.87,ESE,113,0.9,0.9,66,0.00,,,0.00,WUHU216HW,2013-02-22 13:30:00,
2013-02-22 08:35:00,29.5,19.5,29.87,ESE,113,0.9,0.9,66,0.00,,,0.00,WUHU216HW,2013-02-22 13:35:00,
2013-02-22 09:00:00,31.0,20.5,29.86,SE,135,0.4,0.4,65,0.00,,,0.00,WUHU216HW,2013-02-22 14:00:00,
2013-02-22 09:05:00,31.0,20.5,29.86,SE,135,0.4,0.4,65,0.00,,,0.00,WUHU216HW,2013-02-22 14:05:00,
2013-02-22 09:30:00,32.4,20.9,29.85,SE,135,2.5,2.5,62,0.00,,,0.00,WUHU216HW,2013-02-22 14:30:00,
2013-02-22 09:35:00,32.4,20.9,29.85,SE,135,2.5,2.5,62,0.00,,,0.00,WUHU216HW,2013-02-22 14:35:00,
2013-02-22 10:00:00,31.7,19.4,29.85,SE,135,4.9,4.9,60,0.00,,,0.00,WUHU216HW,2013-02-22 15:00:00,
2013-02-22 10:05:00,31.7,19.4,29.85,SE,135,4.9,4.9,60,0.00,,,0.00,WUHU216HW,2013-02-22 15:05:00,
2013-02-22 10:30:00,31.3,19.8,29.85,SSE,158,2.7,2.7,62,0.00,,,0.00,WUHU216HW,2013-02-22 15:30:00,
2013-02-22 10:35:00,31.3,19.8,29.85,SSE,158,2.7,2.7,62,0.00,,,0.00,WUHU216HW,2013-02-22 15:35:00,
2013-02-22 11:00:00,31.1,20.3,29.86,SE,135,4.9,4.9,64,0.00,,,0.00,WUHU216HW,2013-02-22 16:00:00,
2013-02-22 11:05:00,31.1,20.3,29.86,SE,135,4.9,4.9,64,0.00,,,0.00,WUHU216HW,2013-02-22 16:05:00,
2013-02-22 11:30:00,31.0,20.9,29.86,SE,135,3.6,3.6,66,0.00,,,0.00,WUHU216HW,2013-02-22 16:30:00,
2013-02-22 11:35:00,31.0,20.9,29.86,SE,135,3.6,3.6,66,0.00,,,0.00,WUHU216HW,2013-02-22 16:35:00,
2013-02-22 12:00:00,30.8,21.8,29.85,SSE,158,3.1,3.1,69,0.00,,,0.00,WUHU216HW,2013-02-22 17:00:00,
2013-02-22 12:05:00,30.8,21.8,29.85,SSE,158,3.1,3.1,69,0.00,,,0.00,WUHU216HW,2013-02-22 17:05:00,
2013-02-22 12:30:00,30.4,23.8,29.84,SE,135,2.2,2.2,76,0.00,,,0.00,WUHU216HW,2013-02-22 17:30:00,
2013-02-22 12:35:00,30.4,23.8,29.84,SE,135,2.2,2.2,76,0.00,,,0.00,WUHU216HW,2013-02-22 17:35:00,
2013-02-22 13:00:00,29.9,23.9,29.83,East,90,2.2,2.2,78,0.00,,,0.00,WUHU216HW,2013-02-22 18:00:00,
2013-02-22 13:05:00,29.9,23.9,29.83,East,90,2.2,2.2,78,0.00,,,0.00,WUHU216HW,2013-02-22 18:05:00,
2013-02-22 13:30:00,30.6,24.6,29.82,ESE,113,1.3,1.3,78,0.00,,,0.00,WUHU216HW,2013-02-22 18:30:00,
2013-02-22 13:35:00,30.6,24.6,29.82,ESE,113,1.3,1.3,78,0.00,,,0.00,WUHU216HW,2013-02-22 18:35:00,
2013-02-22 14:00:00,31.0,24.9,29.80,SE,135,2.9,2.9,78,0.00,,,0.00,WUHU216HW,2013-02-22 19:00:00,
2013-02-22 14:05:00,31.0,24.9,29.80,SE,135,2.9,2.9,78,0.00,,,0.00,WUHU216HW,2013-02-22 19:05:00,
2013-02-22 14:30:00,31.1,25.1,29.80,ESE,113,4.0,4.0,78,0.00,,,0.00,WUHU216HW,2013-02-22 19:30:00,
2013-02-22 14:35:00,31.1,25.1,29.80,ESE,113,4.0,4.0,78,0.00,,,0.00,WUHU216HW,2013-02-22 19:35:00,
2013-02-22 15:00:00,31.5,25.5,29.79,SSW,203,1.3,1.3,78,0.00,,,0.00,WUHU216HW,2013-02-22 20:00:00,
2013-02-22 15:05:00,31.5,25.5,29.79,SSW,203,1.3,1.3,78,0.00,,,0.00,WUHU216HW,2013-02-22 20:05:00,
2013-02-22 15:30:00,31.5,25.1,29.78,SE,135,1.6,1.6,77,0.00,,,0.00,WUHU216HW,2013-02-22 20:30:00,
2013-02-22 15:35:00,31.5,25.1,29.78,SE,135,1.6,1.6,77,0.00,,,0.00,WUHU216HW,2013-02-22 20:35:00,
2013-02-22 16:00:00,32.2,25.8,29.78,SE,135,3.1,3.1,77,0.00,,,0.00,WUHU216HW,2013-02-22 21:00:00,
2013-02-22 16:05:00,32.2,25.8,29.78,SE,135,3.1,3.1,77,0.00,,,0.00,WUHU216HW,2013-02-22 21:05:00,
2013-02-22 16:30:00,32.0,25.7,29.78,SE,135,2.9,2.9,77,0.00,,,0.00,WUHU216HW,2013-02-22 21:30:00,
2013-02-22 16:35:00,32.0,25.7,29.78,SE,135,2.9,2.9,77,0.00,,,0.00,WUHU216HW,2013-02-22 21:35:00,
2013-02-22 17:00:00,32.0,25.7,29.77,SSE,158,2.7,2.7,77,0.00,,,0.00,WUHU216HW,2013-02-22 22:00:00,
2013-02-22 17:05:00,32.0,25.7,29.77,SSE,158,2.7,2.7,77,0.00,,,0.00,WUHU216HW,2013-02-22 22:05:00,
2013-02-22 17:30:00,32.2,25.8,29.77,ESE,113,3.1,3.1,77,0.00,,,0.00,WUHU216HW,2013-02-22 22:30:00,
2013-02-22 17:35:00,32.2,25.8,29.77,ESE,113,3.1,3.1,77,0.00,,,0.00,WUHU216HW,2013-02-22 22:35:00,
2013-02-22 18:00:00,32.0,26.0,29.77,ESE,113,2.0,2.0,78,0.00,,,0.00,WUHU216HW,2013-02-22 23:00:00,
2013-02-22 18:05:00,32.0,26.0,29.77,ESE,113,2.0,2.0,78,0.00,,,0.00,WUHU216HW,2013-02-22 23:05:00,
2013-02-22 18:30:00,32.0,26.0,29.76,ESE,113,1.1,1.1,78,0.00,,,0.00,WUHU216HW,2013-02-22 23:30:00,
2013-02-22 18:35:00,32.0,26.0,29.76,ESE,113,1.1,1.1,78,0.00,,,0.00,WUHU216HW,2013-02-22 23:35:00,
2013-02-22 19:00:00,32.0,26.0,29.76,ESE,113,2.2,2.2,78,0.00,,,0.00,WUHU216HW,2013-02-23 00:00:00,
2013-02-22 19:05:00,32.0,26.0,29.76,ESE,113,2.2,2.2,78,0.00,,,0.00,WUHU216HW,2013-02-23 00:05:00,
2013-02-22 19:10:00,32.0,26.0,29.76,ESE,113,2.2,2.2,78,0.00,,,0.00,WUHU216HW,2013-02-23 00:10:00,
2013-02-22 19:30:00,31.9,25.8,29.76,SSE,158,3.8,3.8,78,0.00,,,0.00,WUHU216HW,2013-02-23 00:30:00,
2013-02-22 19:35:00,31.9,25.8,29.76,SSE,158,3.8,3.8,78,0.00,,,0.00,WUHU216HW,2013-02-23 00:35:00,
2013-02-22 20:00:00,31.9,26.1,29.75,SE,135,2.5,2.5,79,0.00,,,0.00,WUHU216HW,2013-02-23 01:00:00,
2013-02-22 20:05:00,31.9,26.1,29.75,SE,135,2.5,2.5,79,0.00,,,0.00,WUHU216HW,2013-02-23 01:05:00,
2013-02-22 20:30:00,32.0,26.3,29.75,SSE,158,2.5,2.5,79,0.00,,,0.00,WUHU216HW,2013-02-23 01:30:00,
2013-02-22 20:35:00,32.0,26.3,29.75,SSE,158,2.5,2.5,79,0.00,,,0.00,WUHU216HW,2013-02-23 01:35:00,
2013-02-22 21:00:00,32.2,26.5,29.75,SSE,158,1.8,1.8,79,0.00,,,0.00,WUHU216HW,2013-02-23 02:00:00,
2013-02-22 21:05:00,32.2,26.5,29.75,SSE,158,1.8,1.8,79,0.00,,,0.00,WUHU216HW,2013-02-23 02:05:00,
2013-02-22 21:30:00,32.4,26.6,29.75,SW,225,2.2,2.2,79,0.00,,,0.00,WUHU216HW,2013-02-23 02:30:00,
2013-02-22 21:35:00,32.4,26.6,29.75,SW,225,2.2,2.2,79,0.00,,,0.00,WUHU216HW,2013-02-23 02:35:00,
2013-02-22 22:00:00,32.6,26.8,29.74,SSE,158,3.6,3.6,79,0.00,,,0.00,WUHU216HW,2013-02-23 03:00:00,
2013-02-22 22:05:00,32.6,26.8,29.74,SSE,158,3.6,3.6,79,0.00,,,0.00,WUHU216HW,2013-02-23 03:05:00,
2013-02-22 22:30:00,32.6,26.8,29.74,SE,135,2.5,2.5,79,0.00,,,0.00,WUHU216HW,2013-02-23 03:30:00,
2013-02-22 22:35:00,32.6,26.8,29.74,SE,135,2.5,2.5,79,0.00,,,0.00,WUHU216HW,2013-02-23 03:35:00,
2013-02-22 23:00:00,32.6,26.5,29.74,SE,135,2.5,2.5,78,0.00,,,0.00,WUHU216HW,2013-02-23 04:00:00,
2013-02-22 23:05:00,32.6,26.5,29.74,SE,135,2.5,2.5,78,0.00,,,0.00,WUHU216HW,2013-02-23 04:05:00,
2013-02-22 23:30:00,32.6,26.8,29.73,SSE,158,2.5,2.5,79,0.00,,,0.00,WUHU216HW,2013-02-23 04:30:00,
2013-02-22 23:35:00,32.6,26.8,29.73,SSE,158,2.5,2.5,79,0.00,,,0.00,WUHU216HW,2013-02-23 04:35:00,
2013-02-22 23:40:00,32.6,26.8,29.73,SSE,158,2.5,2.5,79,0.00,,,0.00,WUHU216HW,2013-02-23 04:40:00,